createdAt,value
2023-04-06T00:01:04.402Z,100697.72
2023-04-06T00:03:31.586Z,100702.09
2023-04-06T00:05:58.662Z,100694.37
2023-04-06T00:08:27.639Z,100705.03
2023-04-06T00:10:54.770Z,100705.41
2023-04-06T00:13:22.041Z,100693.34
2023-04-06T00:15:48.931Z,100703.66
2023-04-06T00:18:16.109Z,100700.66
2023-04-06T00:20:43.084Z,100696.97
2023-04-06T00:23:10.037Z,100698.88
2023-04-06T00:25:36.989Z,100695.59
2023-04-06T00:28:04.825Z,100688.78
2023-04-06T00:30:31.844Z,100690.91
2023-04-06T00:32:58.931Z,100689.78
2023-04-06T00:35:25.960Z,100689.34
2023-04-06T00:37:52.972Z,100692.16
2023-04-06T00:40:20.427Z,100690.94
2023-04-06T00:42:47.424Z,100680.16
2023-04-06T00:45:14.459Z,100682.00
2023-04-06T00:47:41.732Z,100686.66
2023-04-06T00:50:09.055Z,100680.38
2023-04-06T00:52:36.853Z,100686.81
2023-04-06T00:55:04.933Z,100688.63
2023-04-06T00:57:32.756Z,100681.72
2023-04-06T00:59:59.948Z,100680.28
2023-04-06T01:02:27.376Z,100685.47
2023-04-06T01:04:55.626Z,100685.75
2023-04-06T01:07:22.815Z,100686.03
2023-04-06T01:09:49.836Z,100683.75
2023-04-06T01:12:16.985Z,100687.28
2023-04-06T01:14:44.004Z,100684.63
2023-04-06T01:17:11.236Z,100685.31
2023-04-06T01:19:38.572Z,100683.56
2023-04-06T01:22:05.731Z,100690.97
2023-04-06T01:24:33.283Z,100687.03
2023-04-06T01:27:00.285Z,100684.75
2023-04-06T01:29:27.319Z,100683.88
2023-04-06T01:31:54.327Z,100682.44
2023-04-06T01:34:21.329Z,100685.03
2023-04-06T01:36:48.266Z,100687.69
2023-04-06T01:39:15.205Z,100683.41
2023-04-06T01:41:42.214Z,100679.06
2023-04-06T01:44:09.164Z,100674.37
2023-04-06T01:46:36.069Z,100690.41
2023-04-06T01:49:03.064Z,100680.25
2023-04-06T01:51:29.951Z,100678.25
2023-04-06T01:53:56.906Z,100670.59
2023-04-06T01:56:23.857Z,100669.16
2023-04-06T01:58:50.874Z,100668.50
2023-04-06T02:01:17.890Z,100663.87
2023-04-06T02:03:44.905Z,100667.66
2023-04-06T02:06:12.206Z,100666.59
2023-04-06T02:08:39.412Z,100663.94
2023-04-06T02:11:06.532Z,100660.50
2023-04-06T02:13:33.666Z,100657.37
2023-04-06T02:16:00.928Z,100653.06
2023-04-06T02:18:28.815Z,100653.75
2023-04-06T02:20:55.936Z,100652.84
2023-04-06T02:23:22.873Z,100651.25
2023-04-06T02:25:49.837Z,100652.09
2023-04-06T02:28:16.924Z,100647.78
2023-04-06T02:30:43.878Z,100648.34
2023-04-06T02:33:11.013Z,100654.13
2023-04-06T02:35:38.116Z,100645.66
2023-04-06T02:38:09.738Z,100648.88
2023-04-06T02:40:36.715Z,100650.34
2023-04-06T02:43:03.650Z,100653.41
2023-04-06T02:45:30.633Z,100649.06
2023-04-06T02:47:57.583Z,100650.25
2023-04-06T02:50:24.633Z,100646.97
2023-04-06T02:52:51.616Z,100641.44
2023-04-06T02:55:19.908Z,100651.72
2023-04-06T02:57:48.053Z,100647.84
2023-04-06T03:00:15.233Z,100649.19
2023-04-06T03:02:42.311Z,100644.06
2023-04-06T03:05:09.432Z,100647.53
2023-04-06T03:07:36.476Z,100645.78
2023-04-06T03:10:03.641Z,100653.56
2023-04-06T03:12:30.886Z,100658.66
2023-04-06T03:14:57.878Z,100655.22
2023-04-06T03:17:25.054Z,100657.87
2023-04-06T03:19:54.165Z,100659.22
2023-04-06T03:22:23.882Z,100661.81
2023-04-06T03:25:01.622Z,100667.13
2023-04-06T03:27:39.600Z,100667.97
2023-04-06T03:30:07.520Z,100669.62
2023-04-06T03:32:53.251Z,100663.38
2023-04-06T03:35:21.356Z,100668.91
2023-04-06T03:37:48.953Z,100666.94
2023-04-06T03:40:16.576Z,100671.41
2023-04-06T03:42:43.507Z,100670.09
2023-04-06T03:45:10.964Z,100670.94
2023-04-06T03:47:37.957Z,100670.75
2023-04-06T03:50:05.300Z,100681.44
2023-04-06T03:52:32.279Z,100683.59
2023-04-06T03:55:00.878Z,100679.66
2023-04-06T03:57:27.816Z,100683.44
2023-04-06T03:59:54.702Z,100678.03
2023-04-06T04:02:21.739Z,100677.56
2023-04-06T04:04:48.729Z,100675.44
2023-04-06T04:07:15.699Z,100685.56
2023-04-06T04:09:42.604Z,100674.47
2023-04-06T04:12:09.567Z,100685.34
2023-04-06T04:14:36.542Z,100674.09
2023-04-06T04:17:03.535Z,100683.44
2023-04-06T04:19:30.616Z,100681.37
2023-04-06T04:21:57.619Z,100688.13
2023-04-06T04:24:24.664Z,100686.38
2023-04-06T04:26:51.890Z,100688.63
2023-04-06T04:29:22.363Z,100689.72
2023-04-06T04:31:50.158Z,100692.72
2023-04-06T04:34:17.357Z,100691.97
2023-04-06T04:36:44.380Z,100699.41
2023-04-06T04:39:11.350Z,100701.22
2023-04-06T04:41:38.329Z,100698.75
2023-04-06T04:44:05.497Z,100698.97
2023-04-06T04:46:32.428Z,100699.09
2023-04-06T04:48:59.337Z,100708.66
2023-04-06T04:51:26.522Z,100703.69
2023-04-06T04:53:53.490Z,100702.47
2023-04-06T04:56:21.501Z,100699.75
2023-04-06T04:58:48.500Z,100696.22
2023-04-06T05:01:15.953Z,100692.78
2023-04-06T05:03:43.229Z,100705.00
2023-04-06T05:06:12.856Z,100698.47
2023-04-06T05:08:40.752Z,100697.97
2023-04-06T05:11:07.832Z,100697.22
2023-04-06T05:13:34.792Z,100693.19
2023-04-06T05:16:01.980Z,100684.00
2023-04-06T05:18:29.244Z,100688.13
2023-04-06T05:20:56.792Z,100686.34
2023-04-06T05:23:23.785Z,100691.44
2023-04-06T05:25:51.083Z,100691.00
2023-04-06T05:28:18.514Z,100694.87
2023-04-06T05:30:46.784Z,100680.66
2023-04-06T05:33:14.107Z,100685.41
2023-04-06T05:35:41.160Z,100679.03
2023-04-06T05:38:10.091Z,100684.41
2023-04-06T05:40:39.197Z,100681.31
2023-04-06T05:43:06.519Z,100677.00
2023-04-06T05:45:33.729Z,100680.63
2023-04-06T05:48:00.794Z,100676.28
2023-04-06T05:50:28.324Z,100670.22
2023-04-06T05:52:55.401Z,100677.16
2023-04-06T05:55:22.442Z,100678.97
2023-04-06T05:57:59.536Z,100683.25
2023-04-06T06:00:31.218Z,100678.88
2023-04-06T06:02:58.495Z,100678.94
2023-04-06T06:05:25.649Z,100683.41
2023-04-06T06:07:53.483Z,100672.91
2023-04-06T06:10:21.111Z,100679.00
2023-04-06T06:12:48.141Z,100675.59
2023-04-06T06:15:15.358Z,100669.53
2023-04-06T06:17:42.482Z,100672.13
2023-04-06T06:20:10.013Z,100664.19
2023-04-06T06:22:37.234Z,100666.84
2023-04-06T06:25:04.745Z,100661.50
2023-04-06T06:27:32.077Z,100658.97
2023-04-06T06:29:59.212Z,100650.22
2023-04-06T06:32:26.616Z,100651.13
2023-04-06T06:34:54.030Z,100659.78
2023-04-06T06:37:21.414Z,100644.63
2023-04-06T06:39:48.743Z,100637.34
2023-04-06T06:42:15.758Z,100652.84
2023-04-06T06:44:42.812Z,100655.47
2023-04-06T06:47:10.513Z,100642.16
2023-04-06T06:49:37.622Z,100646.56
2023-04-06T06:52:06.845Z,100640.50
2023-04-06T06:54:33.990Z,100637.50
2023-04-06T06:57:01.761Z,100632.12
2023-04-06T06:59:29.421Z,100626.44
2023-04-06T07:01:56.761Z,100626.00
2023-04-06T07:04:23.845Z,100629.78
2023-04-06T07:06:51.845Z,100622.47
2023-04-06T07:09:18.864Z,100629.06
2023-04-06T07:11:46.300Z,100625.16
2023-04-06T07:14:13.437Z,100628.25
2023-04-06T07:16:40.529Z,100623.16
2023-04-06T07:19:07.691Z,100628.13
2023-04-06T07:21:34.840Z,100619.50
2023-04-06T07:24:03.951Z,100626.00
2023-04-06T07:26:33.010Z,100628.16
2023-04-06T07:29:02.101Z,100633.25
2023-04-06T07:31:29.397Z,100634.47
2023-04-06T07:33:56.516Z,100633.59
2023-04-06T07:36:25.722Z,100619.25
2023-04-06T07:38:52.852Z,100623.50
2023-04-06T07:41:19.966Z,100617.31
2023-04-06T07:43:49.051Z,100609.16
2023-04-06T07:46:16.245Z,100607.50
2023-04-06T07:48:44.994Z,100610.59
2023-04-06T07:51:17.023Z,100611.41
2023-04-06T07:53:45.266Z,100601.03
2023-04-06T07:56:13.378Z,100592.16
2023-04-06T07:58:42.502Z,100586.41
2023-04-06T08:01:09.634Z,100578.28
2023-04-06T08:03:37.434Z,100584.50
2023-04-06T08:06:04.904Z,100595.69
2023-04-06T08:08:32.043Z,100577.56
2023-04-06T08:11:00.758Z,100580.91
2023-04-06T08:13:29.496Z,100587.62
2023-04-06T08:15:59.150Z,100586.91
2023-04-06T08:18:26.333Z,100579.75
2023-04-06T08:20:53.295Z,100564.50
2023-04-06T08:23:20.793Z,100581.06
2023-04-06T08:25:47.885Z,100563.34
2023-04-06T08:28:14.967Z,100571.84
2023-04-06T08:30:43.744Z,100563.09
2023-04-06T08:33:13.861Z,100561.81
2023-04-06T08:35:41.274Z,100562.37
2023-04-06T08:38:09.475Z,100559.72
2023-04-06T08:40:42.666Z,100560.38
2023-04-06T08:43:14.092Z,100550.69
2023-04-06T08:45:46.865Z,100550.78
2023-04-06T08:48:13.997Z,100543.22
2023-04-06T08:50:43.941Z,100556.19
2023-04-06T08:53:13.845Z,100552.00
2023-04-06T08:55:41.663Z,100540.88
2023-04-06T08:58:10.118Z,100539.22
2023-04-06T09:00:42.449Z,100540.84
2023-04-06T09:03:10.885Z,100532.59
2023-04-06T09:05:38.144Z,100551.97
2023-04-06T09:08:05.230Z,100540.66
2023-04-06T09:10:33.597Z,100546.50
2023-04-06T09:13:07.641Z,100536.31
2023-04-06T09:15:35.260Z,100537.56
2023-04-06T09:18:02.729Z,100531.97
2023-04-06T09:20:31.861Z,100530.22
2023-04-06T09:22:58.916Z,100526.53
2023-04-06T09:25:29.751Z,100522.56
2023-04-06T09:28:05.120Z,100510.81
2023-04-06T09:30:32.173Z,100526.78
2023-04-06T09:33:04.513Z,100497.34
2023-04-06T09:35:32.613Z,100523.31
2023-04-06T09:37:59.732Z,100502.66
2023-04-06T09:40:27.034Z,100509.62
2023-04-06T09:42:55.592Z,100505.97
2023-04-06T09:45:26.717Z,100522.75
2023-04-06T09:47:57.700Z,100516.94
2023-04-06T09:50:27.379Z,100510.12
2023-04-06T09:53:00.133Z,100508.69
2023-04-06T09:55:43.535Z,100496.62
2023-04-06T09:58:31.529Z,100505.50
2023-04-06T10:01:11.890Z,100490.97
2023-04-06T10:03:58.211Z,100492.88
2023-04-06T10:06:29.945Z,100489.78
2023-04-06T10:08:57.953Z,100476.78
2023-04-06T10:11:25.142Z,100487.75
2023-04-06T10:13:52.666Z,100488.81
2023-04-06T10:16:19.852Z,100480.66
2023-04-06T10:18:53.614Z,100487.84
2023-04-06T10:21:24.844Z,100484.56
2023-04-06T10:24:03.624Z,100473.25
2023-04-06T10:26:30.639Z,100483.38
2023-04-06T10:29:05.210Z,100473.88
2023-04-06T10:31:32.912Z,100474.97
2023-04-06T10:34:02.164Z,100479.09
2023-04-06T10:36:34.842Z,100470.87
2023-04-06T10:39:04.351Z,100476.66
2023-04-06T10:41:46.344Z,100464.91
2023-04-06T10:44:23.192Z,100475.53
2023-04-06T10:47:05.217Z,100495.03
2023-04-06T10:49:34.833Z,100485.16
2023-04-06T10:52:02.068Z,100464.78
2023-04-06T10:54:31.869Z,100460.41
2023-04-06T10:56:58.864Z,100450.72
2023-04-06T10:59:28.915Z,100466.59
2023-04-06T11:01:58.198Z,100446.75
2023-04-06T11:04:26.847Z,100449.47
2023-04-06T11:06:55.249Z,100445.91
2023-04-06T11:09:30.721Z,100451.53
2023-04-06T11:11:58.215Z,100457.53
2023-04-06T11:14:25.849Z,100437.81
2023-04-06T11:16:53.374Z,100446.38
2023-04-06T11:19:20.719Z,100446.25
2023-04-06T11:21:49.651Z,100435.19
2023-04-06T11:24:25.921Z,100422.47
2023-04-06T11:26:58.443Z,100423.06
2023-04-06T11:29:31.993Z,100422.56
2023-04-06T11:32:09.345Z,100424.22
2023-04-06T11:34:42.185Z,100420.22
2023-04-06T11:37:11.457Z,100410.47
2023-04-06T11:39:58.261Z,100414.59
2023-04-06T11:42:27.350Z,100405.06
2023-04-06T11:44:58.912Z,100411.25
2023-04-06T11:47:34.856Z,100404.44
2023-04-06T11:50:15.609Z,100394.06
2023-04-06T11:52:43.816Z,100401.28
2023-04-06T11:55:24.843Z,100389.75
2023-04-06T11:57:52.942Z,100398.38
2023-04-06T12:00:22.052Z,100391.12
2023-04-06T12:02:52.317Z,100376.94
2023-04-06T12:05:19.549Z,100389.09
2023-04-06T12:07:47.279Z,100382.34
2023-04-06T12:10:16.491Z,100387.00
2023-04-06T12:12:43.665Z,100386.47
2023-04-06T12:15:11.316Z,100355.72
2023-04-06T12:17:38.520Z,100384.28
2023-04-06T12:20:13.890Z,100373.53
2023-04-06T12:22:52.025Z,100377.19
2023-04-06T12:25:19.126Z,100369.50
2023-04-06T12:27:46.491Z,100379.87
2023-04-06T12:30:14.035Z,100374.28
2023-04-06T12:32:41.508Z,100360.78
2023-04-06T12:35:10.232Z,100359.94
2023-04-06T12:37:38.093Z,100361.22
2023-04-06T12:40:05.665Z,100359.03
2023-04-06T12:42:32.708Z,100363.38
2023-04-06T12:44:59.840Z,100369.59
2023-04-06T12:47:29.154Z,100366.00
2023-04-06T12:49:56.664Z,100362.06
2023-04-06T12:52:23.747Z,100362.69
2023-04-06T12:54:51.501Z,100369.47
2023-04-06T12:57:18.875Z,100357.56
2023-04-06T12:59:46.129Z,100344.81
2023-04-06T13:02:26.037Z,100342.91
2023-04-06T13:04:54.902Z,100361.47
2023-04-06T13:07:24.086Z,100340.97
2023-04-06T13:09:52.324Z,100338.59
2023-04-06T13:12:19.922Z,100354.50
2023-04-06T13:14:52.161Z,100342.25
2023-04-06T13:17:19.187Z,100342.88
2023-04-06T13:19:50.558Z,100335.78
2023-04-06T13:22:18.545Z,100341.69
2023-04-06T13:24:46.896Z,100337.12
2023-04-06T13:27:14.054Z,100345.16
2023-04-06T13:29:41.399Z,100339.72
2023-04-06T13:32:11.160Z,100320.94
2023-04-06T13:34:40.166Z,100313.81
2023-04-06T13:37:07.602Z,100319.28
2023-04-06T13:39:34.689Z,100309.53
2023-04-06T13:42:03.927Z,100313.09
2023-04-06T13:44:31.246Z,100304.97
2023-04-06T13:46:59.430Z,100311.00
2023-04-06T13:49:26.397Z,100302.66
2023-04-06T13:51:53.437Z,100307.38
2023-04-06T13:54:21.350Z,100301.13
2023-04-06T13:56:48.438Z,100291.00
2023-04-06T13:59:15.989Z,100307.16
2023-04-06T14:01:43.451Z,100291.87
2023-04-06T14:04:10.691Z,100294.09
2023-04-06T14:06:40.092Z,100284.06
2023-04-06T14:09:12.902Z,100285.97
2023-04-06T14:11:48.082Z,100283.88
2023-04-06T14:14:28.529Z,100295.22
2023-04-06T14:16:56.123Z,100288.16
2023-04-06T14:19:23.457Z,100281.66
2023-04-06T14:21:50.881Z,100274.34
2023-04-06T14:24:20.323Z,100267.91
2023-04-06T14:26:47.831Z,100273.72
2023-04-06T14:29:15.061Z,100262.75
2023-04-06T14:31:42.482Z,100260.47
2023-04-06T14:34:09.526Z,100262.03
2023-04-06T14:36:38.557Z,100273.50
2023-04-06T14:39:07.162Z,100269.94
2023-04-06T14:41:35.125Z,100288.37
2023-04-06T14:44:02.399Z,100278.50
2023-04-06T14:46:29.584Z,100269.28
2023-04-06T14:48:57.896Z,100264.44
2023-04-06T14:51:31.051Z,100285.25
2023-04-06T14:54:00.427Z,100282.75
2023-04-06T14:56:27.606Z,100272.94
2023-04-06T14:58:55.017Z,100278.69
2023-04-06T15:01:22.328Z,100268.91
2023-04-06T15:03:50.185Z,100282.56
2023-04-06T15:06:19.056Z,100283.78
2023-04-06T15:08:46.664Z,100279.28
2023-04-06T15:11:14.479Z,100278.19
2023-04-06T15:13:42.800Z,100267.37
2023-04-06T15:16:10.130Z,100269.00
2023-04-06T15:18:37.422Z,100276.84
2023-04-06T15:21:04.558Z,100288.75
2023-04-06T15:23:31.849Z,100272.88
2023-04-06T15:25:59.282Z,100275.44
2023-04-06T15:28:26.784Z,100256.69
2023-04-06T15:30:55.337Z,100267.13
2023-04-06T15:33:25.683Z,100265.28
2023-04-06T15:35:52.837Z,100269.22
2023-04-06T15:38:19.964Z,100251.53
2023-04-06T15:40:49.043Z,100278.13
2023-04-06T15:43:17.078Z,100277.34
2023-04-06T15:45:44.354Z,100273.03
2023-04-06T15:48:11.457Z,100270.81
2023-04-06T15:50:38.586Z,100271.06
2023-04-06T15:53:05.692Z,100276.41
2023-04-06T15:55:32.911Z,100261.44
2023-04-06T15:57:59.963Z,100275.84
2023-04-06T16:00:28.953Z,100272.50
2023-04-06T16:02:57.427Z,100274.66
2023-04-06T16:05:25.268Z,100274.50
2023-04-06T16:07:54.232Z,100267.41
2023-04-06T16:10:21.423Z,100271.34
2023-04-06T16:12:48.539Z,100274.72
2023-04-06T16:15:18.233Z,100286.28
2023-04-06T16:17:45.392Z,100274.59
2023-04-06T16:20:13.291Z,100272.13
2023-04-06T16:22:42.647Z,100268.28
2023-04-06T16:25:10.866Z,100270.72
2023-04-06T16:27:38.226Z,100282.75
2023-04-06T16:30:06.045Z,100274.97
2023-04-06T16:32:33.278Z,100280.66
2023-04-06T16:35:00.523Z,100273.28
2023-04-06T16:37:30.023Z,100275.03
2023-04-06T16:39:57.637Z,100277.53
2023-04-06T16:42:24.728Z,100287.16
2023-04-06T16:44:51.869Z,100276.59
2023-04-06T16:47:18.980Z,100272.97
2023-04-06T16:49:46.840Z,100278.47
2023-04-06T16:52:14.025Z,100268.59
2023-04-06T16:54:43.435Z,100273.16
2023-04-06T16:57:13.048Z,100282.91
2023-04-06T16:59:41.388Z,100281.28
2023-04-06T17:02:08.593Z,100280.53
2023-04-06T17:04:37.984Z,100277.69
2023-04-06T17:07:05.128Z,100279.75
2023-04-06T17:12:07.695Z,100279.50
2023-04-06T17:14:35.127Z,100276.12
2023-04-06T17:17:03.897Z,100287.59
2023-04-06T17:19:31.129Z,100280.59
2023-04-06T17:21:58.241Z,100283.19
2023-04-06T17:24:25.674Z,100284.22
2023-04-06T17:26:52.825Z,100277.78
2023-04-06T17:29:19.924Z,100281.75
2023-04-06T17:31:47.059Z,100290.19
2023-04-06T17:34:14.294Z,100293.12
2023-04-06T17:36:41.415Z,100287.87
2023-04-06T17:39:08.984Z,100289.16
2023-04-06T17:41:36.484Z,100302.34
2023-04-06T17:44:03.921Z,100311.25
2023-04-06T17:46:31.160Z,100309.19
2023-04-06T17:48:58.394Z,100311.94
2023-04-06T17:51:26.750Z,100296.47
2023-04-06T17:53:53.943Z,100309.69
2023-04-06T17:56:22.047Z,100317.78
2023-04-06T18:01:22.485Z,100315.91
2023-04-06T18:03:50.120Z,100323.03
2023-04-06T18:06:18.411Z,100328.09
2023-04-06T18:08:45.823Z,100333.56
2023-04-06T18:11:18.558Z,100332.69
2023-04-06T18:13:46.392Z,100337.19
2023-04-06T18:16:16.881Z,100335.37
2023-04-06T18:18:43.894Z,100338.03
2023-04-06T18:21:11.286Z,100339.75
2023-04-06T18:23:38.650Z,100343.34
2023-04-06T18:26:07.032Z,100341.56
2023-04-06T18:28:34.459Z,100349.44
2023-04-06T18:31:02.661Z,100346.81
2023-04-06T18:33:30.207Z,100364.31
2023-04-06T18:35:57.316Z,100351.81
2023-04-06T18:38:24.526Z,100365.91
2023-04-06T18:40:52.125Z,100363.22
2023-04-06T18:43:19.148Z,100369.50
2023-04-06T18:45:46.282Z,100371.97
2023-04-06T18:48:14.016Z,100373.78
2023-04-06T18:50:41.398Z,100374.56
2023-04-06T18:53:08.449Z,100374.72
2023-04-06T18:55:37.293Z,100379.13
2023-04-06T18:58:04.402Z,100379.16
2023-04-06T19:00:31.657Z,100382.66
2023-04-06T19:02:58.967Z,100381.72
2023-04-06T19:05:26.347Z,100388.75
2023-04-06T19:07:53.571Z,100384.34
2023-04-06T19:10:20.727Z,100395.66
2023-04-06T19:12:49.067Z,100387.91
2023-04-06T19:15:16.546Z,100385.25
2023-04-06T19:17:43.906Z,100388.75
2023-04-06T19:20:11.433Z,100386.16
2023-04-06T19:22:41.964Z,100392.25
2023-04-06T19:25:09.453Z,100384.25
2023-04-06T19:27:36.885Z,100377.19
2023-04-06T19:30:05.559Z,100379.13
2023-04-06T19:32:34.271Z,100376.25
2023-04-06T19:35:03.087Z,100378.06
2023-04-06T19:37:30.142Z,100378.16
2023-04-06T19:39:57.233Z,100378.97
2023-04-06T19:42:25.514Z,100372.72
2023-04-06T19:44:53.467Z,100383.37
2023-04-06T19:47:20.707Z,100376.28
2023-04-06T19:49:47.903Z,100380.69
2023-04-06T19:52:15.753Z,100377.00
2023-04-06T19:54:43.100Z,100380.63
2023-04-06T19:57:10.198Z,100383.37
2023-04-06T19:59:37.263Z,100383.97
2023-04-06T20:02:04.560Z,100383.16
2023-04-06T20:04:31.805Z,100383.25
2023-04-06T20:06:59.054Z,100391.78
2023-04-06T20:09:26.301Z,100388.25
2023-04-06T20:11:54.639Z,100389.00
2023-04-06T20:14:23.129Z,100396.19
2023-04-06T20:16:51.109Z,100404.25
2023-04-06T20:19:18.386Z,100401.50
2023-04-06T20:21:45.659Z,100396.09
2023-04-06T20:24:12.783Z,100405.94
2023-04-06T20:26:40.313Z,100402.28
2023-04-06T20:29:07.567Z,100407.75
2023-04-06T20:31:34.727Z,100416.69
2023-04-06T20:34:02.378Z,100414.72
2023-04-06T20:36:32.161Z,100412.34
2023-04-06T20:38:59.343Z,100419.00
2023-04-06T20:41:26.496Z,100416.69
2023-04-06T20:43:53.536Z,100414.09
2023-04-06T20:46:21.098Z,100419.31
2023-04-06T20:48:48.158Z,100412.34
2023-04-06T20:51:23.421Z,100405.34
2023-04-06T20:53:50.657Z,100414.91
2023-04-06T20:56:17.824Z,100405.31
2023-04-06T20:58:44.936Z,100399.16
2023-04-06T21:01:13.436Z,100402.69
2023-04-06T21:03:41.404Z,100397.41
2023-04-06T21:06:09.115Z,100397.41
2023-04-06T21:08:36.716Z,100400.03
2023-04-06T21:11:04.298Z,100393.94
2023-04-06T21:13:31.346Z,100394.78
2023-04-06T21:15:58.553Z,100403.53
2023-04-06T21:18:26.212Z,100393.00
2023-04-06T21:20:53.552Z,100396.47
2023-04-06T21:23:21.951Z,100393.81
2023-04-06T21:25:52.242Z,100393.78
2023-04-06T21:28:19.378Z,100391.22
2023-04-06T21:30:46.590Z,100400.88
2023-04-06T21:33:13.809Z,100387.69
2023-04-06T21:35:41.433Z,100392.94
2023-04-06T21:38:09.215Z,100391.16
2023-04-06T21:40:36.356Z,100385.91
2023-04-06T21:43:03.650Z,100391.22
2023-04-06T21:45:31.473Z,100376.28
2023-04-06T21:47:59.113Z,100380.66
2023-04-06T21:50:26.300Z,100389.53
2023-04-06T21:52:53.392Z,100381.59
2023-04-06T21:55:20.591Z,100383.31
2023-04-06T21:57:47.824Z,100386.94
2023-04-06T22:00:15.434Z,100385.09
2023-04-06T22:02:43.049Z,100387.78
2023-04-06T22:05:10.709Z,100387.78
2023-04-06T22:07:37.798Z,100379.91
2023-04-06T22:10:05.725Z,100381.72
2023-04-06T22:12:32.779Z,100378.25
2023-04-06T22:15:00.132Z,100375.66
2023-04-06T22:17:27.879Z,100373.00
2023-04-06T22:19:54.923Z,100377.22
2023-04-06T22:22:22.087Z,100374.66
2023-04-06T22:24:49.130Z,100366.91
2023-04-06T22:27:16.337Z,100363.41
2023-04-06T22:29:43.341Z,100359.06
2023-04-06T22:32:10.440Z,100363.44
2023-04-06T22:34:37.564Z,100366.84
2023-04-06T22:37:04.612Z,100364.25
2023-04-06T22:39:31.835Z,100369.47
2023-04-06T22:41:59.053Z,100366.75
2023-04-06T22:44:26.170Z,100371.03
2023-04-06T22:46:53.573Z,100361.66
2023-04-06T22:49:21.255Z,100369.50
2023-04-06T22:51:48.282Z,100371.28
2023-04-06T22:54:15.304Z,100369.53
2023-04-06T22:56:42.434Z,100363.41
2023-04-06T22:59:09.622Z,100361.63
2023-04-06T23:01:36.783Z,100368.63
2023-04-06T23:04:04.196Z,100359.91
2023-04-06T23:06:31.620Z,100364.25
2023-04-06T23:08:58.633Z,100361.66
2023-04-06T23:11:25.823Z,100354.69
2023-04-06T23:13:52.806Z,100348.53
2023-04-06T23:16:19.921Z,100349.34
2023-04-06T23:18:46.976Z,100348.56
2023-04-06T23:21:13.962Z,100351.16
2023-04-06T23:23:41.154Z,100340.69
2023-04-06T23:26:08.264Z,100346.78
2023-04-06T23:28:35.366Z,100348.56
2023-04-06T23:31:02.437Z,100351.91
2023-04-06T23:33:29.616Z,100347.62
2023-04-06T23:35:56.972Z,100341.59
2023-04-06T23:38:24.107Z,100341.53
2023-04-06T23:40:51.592Z,100344.09
2023-04-06T23:43:19.247Z,100344.12
2023-04-06T23:45:46.617Z,100335.34
2023-04-06T23:48:20.937Z,100330.12
2023-04-06T23:50:47.972Z,100336.25
2023-04-06T23:53:15.063Z,100331.06
2023-04-06T23:55:42.087Z,100329.34
2023-04-06T23:58:09.012Z,100321.41
